createdAt,value
2022-11-12T00:00:07.026Z,48.72
2022-11-12T00:05:10.377Z,48.59
2022-11-12T00:10:12.593Z,48.86
2022-11-12T00:15:15.122Z,49.39
2022-11-12T00:20:17.513Z,49.45
2022-11-12T00:25:19.877Z,50.19
2022-11-12T00:30:22.028Z,49.99
2022-11-12T00:35:24.272Z,49.79
2022-11-12T00:40:26.973Z,49.01
2022-11-12T00:45:29.212Z,48.83
2022-11-12T00:50:31.382Z,48.46
2022-11-12T00:55:33.706Z,48.45
2022-11-12T01:00:35.974Z,47.92
2022-11-12T01:05:38.210Z,48.19
2022-11-12T01:10:40.543Z,47.95
2022-11-12T01:15:43.580Z,48.06
2022-11-12T01:20:45.967Z,47.51
2022-11-12T01:25:48.380Z,47.67
2022-11-12T01:30:50.745Z,47.67
2022-11-12T01:35:52.923Z,47.91
2022-11-12T01:40:55.109Z,47.27
2022-11-12T01:45:57.995Z,47.56
2022-11-12T01:51:00.854Z,47.95
2022-11-12T01:56:05.957Z,47.85
2022-11-12T02:01:08.345Z,47.66
2022-11-12T02:06:14.700Z,47.88
2022-11-12T02:11:21.725Z,48.16
2022-11-12T02:16:29.629Z,47.73
2022-11-12T02:21:32.469Z,48.36
2022-11-12T02:26:37.716Z,48.66
2022-11-12T02:31:39.965Z,48.89
2022-11-12T02:36:42.297Z,49.47
2022-11-12T02:41:44.459Z,50.00
2022-11-12T02:46:46.642Z,50.31
2022-11-12T02:51:48.953Z,51.08
2022-11-12T02:56:51.140Z,50.84
2022-11-12T03:01:53.527Z,51.97
2022-11-12T03:06:55.736Z,52.79
2022-11-12T03:11:58.024Z,53.05
2022-11-12T03:17:00.344Z,53.42
2022-11-12T03:22:02.781Z,54.53
2022-11-12T03:27:04.976Z,54.97
2022-11-12T03:32:07.331Z,55.19
2022-11-12T03:37:09.977Z,55.96
2022-11-12T03:42:12.300Z,56.37
2022-11-12T03:47:14.509Z,56.58
2022-11-12T03:52:16.701Z,56.66
2022-11-12T03:57:19.029Z,56.93
2022-11-12T04:02:21.263Z,56.89
2022-11-12T04:07:41.788Z,57.56
2022-11-12T04:13:02.333Z,57.52
2022-11-12T04:18:23.102Z,57.74
2022-11-12T04:23:25.373Z,57.58
2022-11-12T04:28:27.870Z,57.95
2022-11-12T04:33:30.241Z,57.71
2022-11-12T04:38:32.421Z,57.46
2022-11-12T04:43:52.873Z,57.57
2022-11-12T04:48:55.024Z,57.23
2022-11-12T04:53:57.205Z,57.55
2022-11-12T04:58:59.551Z,57.32
2022-11-12T05:04:01.890Z,57.44
2022-11-12T05:09:04.172Z,56.95
2022-11-12T05:14:06.503Z,56.69
2022-11-12T05:37:22.533Z,56.89
2022-11-12T05:42:24.716Z,57.48
2022-11-12T05:47:27.039Z,58.31
2022-11-12T05:52:29.443Z,59.22
2022-11-12T05:57:31.634Z,59.37
2022-11-12T06:02:33.865Z,59.96
2022-11-12T06:07:36.086Z,60.56
2022-11-12T06:12:38.392Z,61.35
2022-11-12T06:17:40.581Z,61.44
2022-11-12T06:22:42.931Z,61.86
2022-11-12T06:27:45.257Z,62.17
2022-11-12T06:32:50.970Z,62.42
2022-11-12T06:37:53.364Z,63.15
2022-11-12T06:42:59.606Z,63.62
2022-11-12T06:48:01.836Z,64.67
2022-11-12T06:53:04.276Z,65.04
2022-11-12T06:58:06.544Z,64.58
2022-11-12T07:03:10.027Z,65.01
2022-11-12T07:08:12.234Z,65.46
2022-11-12T07:13:14.664Z,65.98
2022-11-12T07:18:17.011Z,65.65
2022-11-12T07:23:19.411Z,65.70
2022-11-12T07:28:21.777Z,65.84
2022-11-12T07:33:24.568Z,65.80
2022-11-12T07:38:28.128Z,66.13
2022-11-12T07:43:32.678Z,65.73
2022-11-12T07:48:35.337Z,65.73
2022-11-12T07:53:37.895Z,65.10
2022-11-12T07:58:40.718Z,65.11
2022-11-12T08:03:42.926Z,65.75
2022-11-12T08:08:45.653Z,65.24
2022-11-12T08:13:48.608Z,65.00
2022-11-12T08:18:50.991Z,65.28
2022-11-12T08:23:53.399Z,65.81
2022-11-12T08:28:55.612Z,65.88
2022-11-12T08:33:57.837Z,65.97
2022-11-12T08:39:00.170Z,65.66
2022-11-12T08:44:08.150Z,65.32
2022-11-12T08:49:10.747Z,64.89
2022-11-12T08:54:12.939Z,64.90
2022-11-12T08:59:15.185Z,64.08
2022-11-12T09:04:18.682Z,63.72
2022-11-12T09:09:21.094Z,62.99
2022-11-12T09:14:23.322Z,62.51
2022-11-12T09:19:25.539Z,60.90
2022-11-12T09:24:27.934Z,60.61
2022-11-12T09:29:30.145Z,60.27
2022-11-12T09:34:32.506Z,58.74
2022-11-12T09:39:34.687Z,57.92
2022-11-12T09:44:39.775Z,57.53
2022-11-12T09:49:50.578Z,56.72
2022-11-12T09:55:00.796Z,55.77
2022-11-12T10:00:04.015Z,55.91
2022-11-12T10:05:27.890Z,55.97
2022-11-12T10:10:49.490Z,56.22
2022-11-12T10:16:29.201Z,55.84
2022-11-12T10:21:36.627Z,55.95
2022-11-12T10:26:40.781Z,55.45
2022-11-12T10:31:43.117Z,55.36
2022-11-12T10:37:02.136Z,54.65
2022-11-12T10:42:13.369Z,54.17
2022-11-12T10:47:18.435Z,53.83
2022-11-12T10:52:25.361Z,53.34
2022-11-12T10:57:28.084Z,53.06
2022-11-12T11:02:30.504Z,52.85
2022-11-12T11:07:32.731Z,53.22
2022-11-12T11:12:35.351Z,52.99
2022-11-12T11:17:37.659Z,52.32
2022-11-12T11:22:44.906Z,52.25
2022-11-12T11:28:14.077Z,52.44
2022-11-12T11:33:25.078Z,51.47
2022-11-12T11:38:42.233Z,52.06
2022-11-12T11:43:50.478Z,52.14
2022-11-12T11:49:11.219Z,52.17
2022-11-12T11:54:44.906Z,52.54
2022-11-12T12:00:16.463Z,52.32
2022-11-12T12:05:46.656Z,52.22
2022-11-12T12:11:07.354Z,52.20
2022-11-12T12:16:23.871Z,52.32
2022-11-12T12:21:32.504Z,51.58
2022-11-12T12:26:48.607Z,51.51
2022-11-12T12:32:23.106Z,51.78
2022-11-12T12:37:57.786Z,51.97
2022-11-12T12:43:23.716Z,52.14
2022-11-12T12:48:31.586Z,52.20
2022-11-12T12:53:36.139Z,52.67
2022-11-12T12:58:41.086Z,52.83
2022-11-12T13:03:43.435Z,52.57
2022-11-12T13:08:45.850Z,53.08
2022-11-12T13:13:48.150Z,53.39
2022-11-12T13:18:53.034Z,53.58
2022-11-12T13:24:10.833Z,54.08
2022-11-12T13:29:24.982Z,53.68
2022-11-12T13:34:34.121Z,53.78
2022-11-12T13:39:36.874Z,53.76
2022-11-12T13:44:39.251Z,53.77
2022-11-12T13:49:43.649Z,53.55
2022-11-12T13:54:45.986Z,53.56
2022-11-12T13:59:48.306Z,53.50
2022-11-12T14:04:51.968Z,53.13
2022-11-12T14:10:19.879Z,53.19
2022-11-12T14:15:51.329Z,53.61
2022-11-12T14:20:53.700Z,53.44
2022-11-12T14:25:57.668Z,53.48
2022-11-12T14:31:02.092Z,53.45
2022-11-12T14:36:07.618Z,53.26
2022-11-12T14:41:16.053Z,53.33
2022-11-12T14:46:27.555Z,53.49
2022-11-12T14:51:32.502Z,53.91
2022-11-12T14:56:42.627Z,53.83
2022-11-12T15:02:29.499Z,54.35
2022-11-12T15:07:40.371Z,54.34
2022-11-12T15:12:42.984Z,54.11
2022-11-12T15:17:45.443Z,54.39
2022-11-12T15:22:54.301Z,54.35
2022-11-12T15:27:57.219Z,54.44
2022-11-12T15:33:14.453Z,54.90
2022-11-12T15:38:33.310Z,54.88
2022-11-12T15:43:37.224Z,55.03
2022-11-12T15:48:39.412Z,54.73
2022-11-12T15:53:41.649Z,54.82
2022-11-12T15:58:44.006Z,54.83
2022-11-12T16:03:46.586Z,54.71
2022-11-12T16:08:48.922Z,55.14
2022-11-12T16:13:51.221Z,55.07
2022-11-12T16:18:53.546Z,55.21
2022-11-12T16:23:55.839Z,55.60
2022-11-12T16:28:58.221Z,55.42
2022-11-12T16:34:00.554Z,55.78
2022-11-12T16:39:02.935Z,55.83
2022-11-12T16:44:05.281Z,55.66
2022-11-12T16:49:12.769Z,55.82
2022-11-12T16:54:14.961Z,56.58
2022-11-12T16:59:17.336Z,57.20
2022-11-12T17:04:19.835Z,58.11
2022-11-12T17:09:22.207Z,58.54
2022-11-12T17:14:28.313Z,59.14
2022-11-12T17:19:30.939Z,59.18
2022-11-12T17:24:33.314Z,59.64
2022-11-12T17:29:35.637Z,59.47
2022-11-12T17:34:39.914Z,59.71
2022-11-12T17:39:42.146Z,60.18
2022-11-12T17:44:46.533Z,60.25
2022-11-12T17:49:48.899Z,61.21
2022-11-12T17:54:51.265Z,61.78
2022-11-12T17:59:53.498Z,62.61
2022-11-12T18:04:55.743Z,63.83
2022-11-12T18:09:58.034Z,64.87
2022-11-12T18:15:00.302Z,66.14
2022-11-12T18:20:03.150Z,65.74
2022-11-12T18:25:05.963Z,65.44
2022-11-12T18:30:08.731Z,65.08
2022-11-12T18:35:11.220Z,66.92
2022-11-12T18:40:13.647Z,65.82
2022-11-12T18:45:16.092Z,66.08
2022-11-12T18:50:18.793Z,65.67
2022-11-12T18:55:21.643Z,66.01
2022-11-12T19:00:23.854Z,66.46
2022-11-12T19:05:26.401Z,67.78
2022-11-12T19:10:28.624Z,67.01
2022-11-12T19:15:34.376Z,68.22
2022-11-12T19:20:36.716Z,70.84
2022-11-12T19:25:39.149Z,70.76
2022-11-12T19:30:41.756Z,69.80
2022-11-12T19:35:44.363Z,70.69
2022-11-12T19:40:46.759Z,70.44
2022-11-12T19:45:49.080Z,71.85
2022-11-12T19:50:51.551Z,71.67
2022-11-12T19:55:54.110Z,71.17
2022-11-12T20:01:04.505Z,72.13
2022-11-12T20:06:09.965Z,72.83
2022-11-12T20:11:12.862Z,72.34
2022-11-12T20:16:20.970Z,72.80
2022-11-12T20:21:28.232Z,72.50
2022-11-12T20:26:30.538Z,72.66
2022-11-12T20:31:33.858Z,71.69
2022-11-12T20:36:36.308Z,72.61
2022-11-12T20:41:38.641Z,72.64
2022-11-12T20:46:41.048Z,72.24
2022-11-12T20:51:43.516Z,72.34
2022-11-12T20:56:46.405Z,72.75
2022-11-12T21:01:48.855Z,72.84
2022-11-12T21:06:51.360Z,73.23
2022-11-12T21:11:53.896Z,74.29
2022-11-12T21:16:56.264Z,74.53
2022-11-12T21:21:58.609Z,74.01
2022-11-12T21:27:01.253Z,75.54
2022-11-12T21:32:04.173Z,74.78
2022-11-12T21:37:06.451Z,75.13
2022-11-12T21:42:08.797Z,74.90
2022-11-12T21:47:11.292Z,74.93
2022-11-12T21:52:13.542Z,73.91
2022-11-12T21:57:18.716Z,73.69
2022-11-12T22:02:21.288Z,73.75
2022-11-12T22:07:23.607Z,74.53
2022-11-12T22:12:25.902Z,74.32
2022-11-12T22:17:28.261Z,73.88
2022-11-12T22:22:30.431Z,74.60
2022-11-12T22:27:34.193Z,74.87
2022-11-12T22:32:36.378Z,74.55
2022-11-12T22:37:38.574Z,74.80
2022-11-12T22:42:40.742Z,74.33
2022-11-12T22:47:42.917Z,73.72
2022-11-12T22:52:50.006Z,74.45
2022-11-12T22:57:52.458Z,75.05
2022-11-12T23:02:54.705Z,75.52
2022-11-12T23:07:56.910Z,75.81
2022-11-12T23:12:59.099Z,75.28
2022-11-12T23:18:01.272Z,76.77
2022-11-12T23:23:03.544Z,77.78
2022-11-12T23:28:08.244Z,76.43
2022-11-12T23:33:10.746Z,75.91
2022-11-12T23:38:13.142Z,76.24
2022-11-12T23:43:15.463Z,78.84
2022-11-12T23:48:18.668Z,79.45
2022-11-12T23:53:20.991Z,78.84
2022-11-12T23:58:23.311Z,78.01
